sensor_id;sensor_type;location;lat;lon;timestamp;pressure;altitude;pressure_sealevel;temperature;humidity
73024;BME280;61199;47.526;8.538;2023-05-03T00:01:16;97088.59;;;14.12;69.96
73024;BME280;61199;47.526;8.538;2023-05-03T00:03:42;97091.25;;;14.02;70.20
73024;BME280;61199;47.526;8.538;2023-05-03T00:06:14;97096.38;;;14.04;70.00
73024;BME280;61199;47.526;8.538;2023-05-03T00:08:42;97094.84;;;14.11;69.76
73024;BME280;61199;47.526;8.538;2023-05-03T00:11:09;97094.31;;;14.17;69.43
73024;BME280;61199;47.526;8.538;2023-05-03T00:13:36;97083.22;;;14.13;69.26
73024;BME280;61199;47.526;8.538;2023-05-03T00:16:02;97082.09;;;14.16;69.32
73024;BME280;61199;47.526;8.538;2023-05-03T00:18:29;97080.19;;;14.18;69.15
73024;BME280;61199;47.526;8.538;2023-05-03T00:20:57;97083.47;;;14.10;69.40
73024;BME280;61199;47.526;8.538;2023-05-03T00:23:25;97090.00;;;14.06;69.12
73024;BME280;61199;47.526;8.538;2023-05-03T00:25:53;97084.03;;;14.04;69.20
73024;BME280;61199;47.526;8.538;2023-05-03T00:28:20;97080.84;;;14.01;69.20
73024;BME280;61199;47.526;8.538;2023-05-03T00:30:46;97088.31;;;13.96;69.05
73024;BME280;61199;47.526;8.538;2023-05-03T00:33:13;97085.00;;;13.94;69.09
73024;BME280;61199;47.526;8.538;2023-05-03T00:35:40;97085.28;;;14.00;68.92
73024;BME280;61199;47.526;8.538;2023-05-03T00:38:06;97082.13;;;13.97;68.76
73024;BME280;61199;47.526;8.538;2023-05-03T00:40:32;97081.69;;;13.92;68.61
73024;BME280;61199;47.526;8.538;2023-05-03T00:42:59;97084.19;;;13.84;69.37
73024;BME280;61199;47.526;8.538;2023-05-03T00:45:26;97075.31;;;13.75;69.71
73024;BME280;61199;47.526;8.538;2023-05-03T00:47:52;97074.31;;;13.67;69.16
73024;BME280;61199;47.526;8.538;2023-05-03T00:50:19;97074.31;;;13.67;69.80
73024;BME280;61199;47.526;8.538;2023-05-03T00:52:46;97080.00;;;13.62;70.11
73024;BME280;61199;47.526;8.538;2023-05-03T00:55:13;97071.00;;;13.65;70.01
73024;BME280;61199;47.526;8.538;2023-05-03T00:57:40;97070.47;;;13.71;69.75
73024;BME280;61199;47.526;8.538;2023-05-03T01:00:07;97065.75;;;13.74;70.07
73024;BME280;61199;47.526;8.538;2023-05-03T01:02:38;97066.84;;;13.72;69.74
73024;BME280;61199;47.526;8.538;2023-05-03T01:05:05;97067.13;;;13.69;69.83
73024;BME280;61199;47.526;8.538;2023-05-03T01:07:44;97062.16;;;13.75;69.90
73024;BME280;61199;47.526;8.538;2023-05-03T01:10:41;97061.31;;;13.75;69.43
73024;BME280;61199;47.526;8.538;2023-05-03T01:13:23;97065.75;;;13.74;69.46
73024;BME280;61199;47.526;8.538;2023-05-03T01:15:58;97071.16;;;13.73;69.24
73024;BME280;61199;47.526;8.538;2023-05-03T01:18:29;97068.81;;;13.70;69.28
73024;BME280;61199;47.526;8.538;2023-05-03T01:20:59;97075.72;;;13.71;69.51
73024;BME280;61199;47.526;8.538;2023-05-03T01:23:41;97069.88;;;13.58;69.60
73024;BME280;61199;47.526;8.538;2023-05-03T01:26:34;97066.03;;;13.62;69.47
73024;BME280;61199;47.526;8.538;2023-05-03T01:29:01;97062.94;;;13.57;69.45
73024;BME280;61199;47.526;8.538;2023-05-03T01:31:34;97060.59;;;13.54;69.59
73024;BME280;61199;47.526;8.538;2023-05-03T01:36:43;97056.44;;;13.51;69.53
73024;BME280;61199;47.526;8.538;2023-05-03T01:39:15;97047.56;;;13.43;69.48
73024;BME280;61199;47.526;8.538;2023-05-03T01:41:44;97054.06;;;13.39;69.84
73024;BME280;61199;47.526;8.538;2023-05-03T01:44:10;97048.25;;;13.45;69.73
73024;BME280;61199;47.526;8.538;2023-05-03T01:46:44;97044.38;;;13.49;69.53
73024;BME280;61199;47.526;8.538;2023-05-03T01:49:10;97048.81;;;13.48;69.58
73024;BME280;61199;47.526;8.538;2023-05-03T01:51:37;97043.97;;;13.44;69.85
73024;BME280;61199;47.526;8.538;2023-05-03T01:54:04;97043.28;;;13.42;69.68
73024;BME280;61199;47.526;8.538;2023-05-03T01:56:33;97039.94;;;13.40;69.40
73024;BME280;61199;47.526;8.538;2023-05-03T01:59:01;97044.09;;;13.42;69.23
73024;BME280;61199;47.526;8.538;2023-05-03T02:01:27;97035.25;;;13.34;69.04
73024;BME280;61199;47.526;8.538;2023-05-03T02:03:54;97034.94;;;13.27;69.14
73024;BME280;61199;47.526;8.538;2023-05-03T02:06:20;97041.56;;;13.22;69.28
73024;BME280;61199;47.526;8.538;2023-05-03T02:08:46;97037.56;;;13.18;69.29
73024;BME280;61199;47.526;8.538;2023-05-03T02:11:13;97037.97;;;13.13;69.28
73024;BME280;61199;47.526;8.538;2023-05-03T02:13:40;97043.75;;;12.98;69.34
73024;BME280;61199;47.526;8.538;2023-05-03T02:16:06;97039.44;;;12.97;68.81
73024;BME280;61199;47.526;8.538;2023-05-03T02:18:32;97035.13;;;12.96;68.79
73024;BME280;61199;47.526;8.538;2023-05-03T02:21:00;97043.66;;;12.88;68.67
73024;BME280;61199;47.526;8.538;2023-05-03T02:23:27;97041.97;;;12.78;68.88
73024;BME280;61199;47.526;8.538;2023-05-03T02:25:53;97041.66;;;12.71;68.56
73024;BME280;61199;47.526;8.538;2023-05-03T02:28:19;97047.19;;;12.68;69.13
73024;BME280;61199;47.526;8.538;2023-05-03T02:30:46;97046.03;;;12.61;69.13
73024;BME280;61199;47.526;8.538;2023-05-03T02:33:12;97046.81;;;12.52;69.35
73024;BME280;61199;47.526;8.538;2023-05-03T02:35:38;97047.75;;;12.42;69.37
73024;BME280;61199;47.526;8.538;2023-05-03T02:38:05;97051.16;;;12.33;69.50
73024;BME280;61199;47.526;8.538;2023-05-03T02:40:31;97045.53;;;12.37;69.52
73024;BME280;61199;47.526;8.538;2023-05-03T02:42:57;97043.41;;;12.11;70.16
73024;BME280;61199;47.526;8.538;2023-05-03T02:45:24;97041.94;;;12.18;70.09
73024;BME280;61199;47.526;8.538;2023-05-03T02:47:50;97045.66;;;12.15;70.20
73024;BME280;61199;47.526;8.538;2023-05-03T02:50:17;97048.59;;;12.22;69.99
73024;BME280;61199;47.526;8.538;2023-05-03T02:52:43;97038.09;;;12.22;70.49
73024;BME280;61199;47.526;8.538;2023-05-03T02:55:09;97042.53;;;12.21;70.48
73024;BME280;61199;47.526;8.538;2023-05-03T02:57:36;97041.44;;;12.24;70.34
73024;BME280;61199;47.526;8.538;2023-05-03T03:00:03;97035.03;;;12.17;70.13
73024;BME280;61199;47.526;8.538;2023-05-03T03:02:31;97038.75;;;12.14;70.29
73024;BME280;61199;47.526;8.538;2023-05-03T03:04:58;97040.00;;;12.20;69.66
73024;BME280;61199;47.526;8.538;2023-05-03T03:07:24;97039.00;;;12.11;69.75
73024;BME280;61199;47.526;8.538;2023-05-03T03:09:51;97040.84;;;11.79;70.70
73024;BME280;61199;47.526;8.538;2023-05-03T03:12:17;97044.09;;;11.72;70.89
73024;BME280;61199;47.526;8.538;2023-05-03T03:14:43;97041.09;;;11.76;70.77
73024;BME280;61199;47.526;8.538;2023-05-03T03:17:10;97044.81;;;11.74;71.39
73024;BME280;61199;47.526;8.538;2023-05-03T03:19:38;97037.41;;;11.79;70.73
73024;BME280;61199;47.526;8.538;2023-05-03T03:22:04;97045.00;;;11.82;70.58
73024;BME280;61199;47.526;8.538;2023-05-03T03:24:32;97049.25;;;11.63;71.16
73024;BME280;61199;47.526;8.538;2023-05-03T03:26:58;97046.25;;;11.67;71.20
73024;BME280;61199;47.526;8.538;2023-05-03T03:29:24;97053.44;;;11.65;71.81
73024;BME280;61199;47.526;8.538;2023-05-03T03:31:51;97049.34;;;11.72;71.13
73024;BME280;61199;47.526;8.538;2023-05-03T03:34:17;97049.63;;;11.69;71.39
73024;BME280;61199;47.526;8.538;2023-05-03T03:36:43;97057.13;;;11.73;71.43
73024;BME280;61199;47.526;8.538;2023-05-03T03:39:10;97052.56;;;11.75;71.18
73024;BME280;61199;47.526;8.538;2023-05-03T03:41:36;97055.69;;;11.69;71.11
73024;BME280;61199;47.526;8.538;2023-05-03T03:44:03;97048.88;;;11.78;70.72
73024;BME280;61199;47.526;8.538;2023-05-03T03:46:29;97054.81;;;11.80;69.92
73024;BME280;61199;47.526;8.538;2023-05-03T03:48:56;97049.94;;;11.75;70.01
73024;BME280;61199;47.526;8.538;2023-05-03T03:51:22;97052.19;;;11.80;69.89
73024;BME280;61199;47.526;8.538;2023-05-03T03:53:50;97045.28;;;11.79;69.80
73024;BME280;61199;47.526;8.538;2023-05-03T03:56:17;97050.31;;;11.71;69.86
73024;BME280;61199;47.526;8.538;2023-05-03T03:58:43;97053.19;;;11.68;70.52
73024;BME280;61199;47.526;8.538;2023-05-03T04:01:10;97051.88;;;11.73;69.96
73024;BME280;61199;47.526;8.538;2023-05-03T04:03:37;97054.34;;;11.75;69.46
73024;BME280;61199;47.526;8.538;2023-05-03T04:06:04;97049.94;;;11.75;69.69
73024;BME280;61199;47.526;8.538;2023-05-03T04:08:30;97051.50;;;11.78;69.85
73024;BME280;61199;47.526;8.538;2023-05-03T04:10:56;97050.16;;;11.72;69.52
73024;BME280;61199;47.526;8.538;2023-05-03T04:13:23;97059.84;;;11.72;69.73
73024;BME280;61199;47.526;8.538;2023-05-03T04:15:53;97058.19;;;11.71;69.93
73024;BME280;61199;47.526;8.538;2023-05-03T04:18:19;97059.66;;;11.64;69.67
73024;BME280;61199;47.526;8.538;2023-05-03T04:20:46;97065.84;;;11.63;69.46
73024;BME280;61199;47.526;8.538;2023-05-03T04:23:12;97066.94;;;11.61;69.32
73024;BME280;61199;47.526;8.538;2023-05-03T04:25:39;97067.78;;;11.50;69.42
73024;BME280;61199;47.526;8.538;2023-05-03T04:28:12;97068.72;;;11.49;69.80
73024;BME280;61199;47.526;8.538;2023-05-03T04:30:41;97065.41;;;11.47;69.73
73024;BME280;61199;47.526;8.538;2023-05-03T04:33:10;97065.16;;;11.50;69.59
73024;BME280;61199;47.526;8.538;2023-05-03T04:35:36;97068.50;;;11.52;69.76
73024;BME280;61199;47.526;8.538;2023-05-03T04:38:03;97072.19;;;11.50;70.10
73024;BME280;61199;47.526;8.538;2023-05-03T04:40:29;97059.34;;;11.47;70.63
73024;BME280;61199;47.526;8.538;2023-05-03T04:42:55;97066.94;;;11.50;70.58
73024;BME280;61199;47.526;8.538;2023-05-03T04:45:22;97077.88;;;11.54;70.60
73024;BME280;61199;47.526;8.538;2023-05-03T04:47:49;97081.97;;;11.59;70.58
73024;BME280;61199;47.526;8.538;2023-05-03T04:50:15;97080.91;;;11.61;70.36
73024;BME280;61199;47.526;8.538;2023-05-03T04:52:41;97077.75;;;11.56;70.34
73024;BME280;61199;47.526;8.538;2023-05-03T04:55:08;97083.38;;;11.52;70.41
73024;BME280;61199;47.526;8.538;2023-05-03T04:57:34;97087.81;;;11.51;70.36
73024;BME280;61199;47.526;8.538;2023-05-03T05:00:01;97090.06;;;11.56;70.36
73024;BME280;61199;47.526;8.538;2023-05-03T05:02:29;97097.09;;;11.55;70.27
73024;BME280;61199;47.526;8.538;2023-05-03T05:04:56;97091.41;;;11.61;70.13
73024;BME280;61199;47.526;8.538;2023-05-03T05:07:22;97093.06;;;11.62;70.07
73024;BME280;61199;47.526;8.538;2023-05-03T05:09:48;97105.09;;;11.65;70.13
73024;BME280;61199;47.526;8.538;2023-05-03T05:12:15;97103.19;;;11.67;70.18
73024;BME280;61199;47.526;8.538;2023-05-03T05:14:41;97110.00;;;11.58;70.76
73024;BME280;61199;47.526;8.538;2023-05-03T05:17:08;97111.06;;;11.56;70.51
73024;BME280;61199;47.526;8.538;2023-05-03T05:19:34;97113.31;;;11.49;71.09
73024;BME280;61199;47.526;8.538;2023-05-03T05:22:01;97111.94;;;11.34;71.54
73024;BME280;61199;47.526;8.538;2023-05-03T05:24:27;97114.53;;;11.45;71.42
73024;BME280;61199;47.526;8.538;2023-05-03T05:26:54;97118.59;;;11.60;70.69
73024;BME280;61199;47.526;8.538;2023-05-03T05:29:20;97112.94;;;11.75;70.07
73024;BME280;61199;47.526;8.538;2023-05-03T05:31:47;97121.28;;;11.69;70.17
73024;BME280;61199;47.526;8.538;2023-05-03T05:34:13;97121.75;;;11.74;69.93
73024;BME280;61199;47.526;8.538;2023-05-03T05:36:40;97122.34;;;11.78;69.68
73024;BME280;61199;47.526;8.538;2023-05-03T05:39:06;97119.00;;;11.76;69.90
73024;BME280;61199;47.526;8.538;2023-05-03T05:41:32;97119.59;;;11.79;69.59
73024;BME280;61199;47.526;8.538;2023-05-03T05:43:59;97122.34;;;11.78;69.55
73024;BME280;61199;47.526;8.538;2023-05-03T05:46:25;97117.34;;;11.75;69.95
73024;BME280;61199;47.526;8.538;2023-05-03T05:48:52;97114.81;;;11.84;69.68
73024;BME280;61199;47.526;8.538;2023-05-03T05:51:19;97115.06;;;11.70;70.14
73024;BME280;61199;47.526;8.538;2023-05-03T05:53:45;97113.47;;;11.90;69.68
73024;BME280;61199;47.526;8.538;2023-05-03T05:56:11;97115.97;;;11.91;69.66
73024;BME280;61199;47.526;8.538;2023-05-03T05:58:38;97109.81;;;12.02;69.58
73024;BME280;61199;47.526;8.538;2023-05-03T06:01:04;97117.66;;;12.13;69.34
73024;BME280;61199;47.526;8.538;2023-05-03T06:03:32;97108.16;;;12.01;69.34
73024;BME280;61199;47.526;8.538;2023-05-03T06:05:59;97109.81;;;12.02;69.52
73024;BME280;61199;47.526;8.538;2023-05-03T06:08:26;97111.75;;;12.00;69.18
73024;BME280;61199;47.526;8.538;2023-05-03T06:10:52;97109.41;;;11.86;69.96
73024;BME280;61199;47.526;8.538;2023-05-03T06:13:19;97101.78;;;11.83;69.96
73024;BME280;61199;47.526;8.538;2023-05-03T06:15:45;97104.50;;;11.92;69.87
73024;BME280;61199;47.526;8.538;2023-05-03T06:18:11;97108.88;;;12.03;69.51
73024;BME280;61199;47.526;8.538;2023-05-03T06:20:38;97106.75;;;11.97;69.76
73024;BME280;61199;47.526;8.538;2023-05-03T06:23:05;97110.75;;;11.80;70.52
73024;BME280;61199;47.526;8.538;2023-05-03T06:25:31;97113.69;;;11.98;69.98
73024;BME280;61199;47.526;8.538;2023-05-03T06:27:58;97109.97;;;12.00;69.75
73024;BME280;61199;47.526;8.538;2023-05-03T06:30:24;97116.16;;;11.99;69.96
73024;BME280;61199;47.526;8.538;2023-05-03T06:32:51;97117.78;;;12.11;69.69
73024;BME280;61199;47.526;8.538;2023-05-03T06:35:17;97119.84;;;12.08;69.66
73024;BME280;61199;47.526;8.538;2023-05-03T06:37:44;97118.75;;;12.10;69.71
73024;BME280;61199;47.526;8.538;2023-05-03T06:40:11;97116.66;;;12.25;69.74
73024;BME280;61199;47.526;8.538;2023-05-03T06:42:37;97126.38;;;12.34;69.51
73024;BME280;61199;47.526;8.538;2023-05-03T06:45:04;97115.69;;;12.46;69.16
73024;BME280;61199;47.526;8.538;2023-05-03T06:47:31;97108.31;;;12.40;69.57
73024;BME280;61199;47.526;8.538;2023-05-03T06:49:58;97113.38;;;12.32;69.61
73024;BME280;61199;47.526;8.538;2023-05-03T06:52:24;97112.72;;;12.40;69.61
73024;BME280;61199;47.526;8.538;2023-05-03T06:54:50;97119.31;;;12.55;69.32
73024;BME280;61199;47.526;8.538;2023-05-03T06:57:18;97120.72;;;12.59;69.40
73024;BME280;61199;47.526;8.538;2023-05-03T06:59:44;97115.91;;;12.64;69.48
73024;BME280;61199;47.526;8.538;2023-05-03T07:02:11;97103.66;;;12.74;69.34
73024;BME280;61199;47.526;8.538;2023-05-03T07:04:37;97106.97;;;12.76;69.15
73024;BME280;61199;47.526;8.538;2023-05-03T07:07:04;97110.84;;;12.72;69.07
73024;BME280;61199;47.526;8.538;2023-05-03T07:09:31;97114.69;;;12.68;69.11
73024;BME280;61199;47.526;8.538;2023-05-03T07:12:08;97099.84;;;12.87;68.43
73024;BME280;61199;47.526;8.538;2023-05-03T07:14:35;97105.19;;;12.97;68.59
73024;BME280;61199;47.526;8.538;2023-05-03T07:17:01;97107.34;;;12.92;68.89
73024;BME280;61199;47.526;8.538;2023-05-03T07:19:28;97097.22;;;12.87;68.77
73024;BME280;61199;47.526;8.538;2023-05-03T07:21:55;97109.78;;;12.84;69.14
73024;BME280;61199;47.526;8.538;2023-05-03T07:24:21;97101.91;;;12.84;69.08
73024;BME280;61199;47.526;8.538;2023-05-03T07:26:50;97104.00;;;12.90;68.92
73024;BME280;61199;47.526;8.538;2023-05-03T07:29:16;97104.06;;;12.99;68.90
73024;BME280;61199;47.526;8.538;2023-05-03T07:31:43;97090.28;;;13.07;68.74
73024;BME280;61199;47.526;8.538;2023-05-03T07:34:10;97086.50;;;13.00;68.86
73024;BME280;61199;47.526;8.538;2023-05-03T07:36:37;97102.28;;;13.00;69.00
73024;BME280;61199;47.526;8.538;2023-05-03T07:39:04;97086.06;;;12.95;69.19
73024;BME280;61199;47.526;8.538;2023-05-03T07:41:30;97087.47;;;12.99;68.89
73024;BME280;61199;47.526;8.538;2023-05-03T07:43:56;97080.19;;;12.91;69.14
73024;BME280;61199;47.526;8.538;2023-05-03T07:46:23;97084.19;;;12.86;69.46
73024;BME280;61199;47.526;8.538;2023-05-03T07:48:50;97084.41;;;12.94;69.12
73024;BME280;61199;47.526;8.538;2023-05-03T07:51:16;97073.94;;;12.83;69.82
73024;BME280;61199;47.526;8.538;2023-05-03T07:53:42;97081.72;;;12.84;69.82
73024;BME280;61199;47.526;8.538;2023-05-03T07:56:09;97074.22;;;12.80;69.79
73024;BME280;61199;47.526;8.538;2023-05-03T07:58:36;97060.97;;;12.91;69.80
73024;BME280;61199;47.526;8.538;2023-05-03T08:01:06;97066.50;;;13.18;68.80
73024;BME280;61199;47.526;8.538;2023-05-03T08:03:32;97064.13;;;13.15;68.68
73024;BME280;61199;47.526;8.538;2023-05-03T08:05:59;97052.41;;;13.38;68.05
73024;BME280;61199;47.526;8.538;2023-05-03T08:08:26;97049.09;;;13.55;67.85
73024;BME280;61199;47.526;8.538;2023-05-03T08:10:52;97054.78;;;13.69;67.37
73024;BME280;61199;47.526;8.538;2023-05-03T08:13:19;97057.97;;;13.82;67.55
73024;BME280;61199;47.526;8.538;2023-05-03T08:15:48;97060.75;;;13.90;67.62
73024;BME280;61199;47.526;8.538;2023-05-03T08:18:15;97062.41;;;13.82;67.73
73024;BME280;61199;47.526;8.538;2023-05-03T08:20:41;97061.16;;;13.95;67.39
73024;BME280;61199;47.526;8.538;2023-05-03T08:23:09;97053.53;;;14.02;67.40
73024;BME280;61199;47.526;8.538;2023-05-03T08:25:36;97053.00;;;14.08;66.97
73024;BME280;61199;47.526;8.538;2023-05-03T08:28:03;97044.94;;;14.19;66.34
73024;BME280;61199;47.526;8.538;2023-05-03T08:30:29;97045.75;;;14.29;65.22
73024;BME280;61199;47.526;8.538;2023-05-03T08:32:56;97047.72;;;14.27;65.47
73024;BME280;61199;47.526;8.538;2023-05-03T08:35:23;97041.44;;;14.37;65.41
73024;BME280;61199;47.526;8.538;2023-05-03T08:37:49;97044.22;;;14.36;65.24
73024;BME280;61199;47.526;8.538;2023-05-03T08:40:15;97051.88;;;14.20;65.43
73024;BME280;61199;47.526;8.538;2023-05-03T08:42:44;97047.44;;;14.30;65.41
73024;BME280;61199;47.526;8.538;2023-05-03T08:45:12;97037.88;;;14.19;65.51
73024;BME280;61199;47.526;8.538;2023-05-03T08:47:43;97033.31;;;14.21;65.62
73024;BME280;61199;47.526;8.538;2023-05-03T08:50:12;97027.19;;;14.11;65.69
73024;BME280;61199;47.526;8.538;2023-05-03T08:52:40;97026.25;;;13.93;65.97
73024;BME280;61199;47.526;8.538;2023-05-03T08:55:08;97028.59;;;13.87;66.54
73024;BME280;61199;47.526;8.538;2023-05-03T08:57:35;97030.25;;;13.97;66.04
73024;BME280;61199;47.526;8.538;2023-05-03T09:00:02;97033.16;;;14.04;65.69
73024;BME280;61199;47.526;8.538;2023-05-03T09:02:31;97027.88;;;14.04;64.85
73024;BME280;61199;47.526;8.538;2023-05-03T09:05:02;97019.69;;;14.16;64.91
73024;BME280;61199;47.526;8.538;2023-05-03T09:07:30;97036.59;;;14.14;65.47
73024;BME280;61199;47.526;8.538;2023-05-03T09:09:56;97032.34;;;14.03;65.42
73024;BME280;61199;47.526;8.538;2023-05-03T09:12:37;97036.50;;;14.06;66.17
73024;BME280;61199;47.526;8.538;2023-05-03T09:15:06;97024.69;;;14.29;64.92
73024;BME280;61199;47.526;8.538;2023-05-03T09:17:34;97035.50;;;14.16;64.70
73024;BME280;61199;47.526;8.538;2023-05-03T09:20:00;97031.31;;;14.33;64.36
73024;BME280;61199;47.526;8.538;2023-05-03T09:22:32;97030.34;;;14.15;64.53
73024;BME280;61199;47.526;8.538;2023-05-03T09:24:59;97032.75;;;14.18;64.40
73024;BME280;61199;47.526;8.538;2023-05-03T09:27:26;97030.94;;;14.28;64.79
73024;BME280;61199;47.526;8.538;2023-05-03T09:29:53;97026.28;;;14.49;64.50
73024;BME280;61199;47.526;8.538;2023-05-03T09:32:20;97026.28;;;14.49;64.54
73024;BME280;61199;47.526;8.538;2023-05-03T09:34:47;97026.34;;;14.39;64.86
73024;BME280;61199;47.526;8.538;2023-05-03T09:37:14;97021.66;;;14.70;64.35
73024;BME280;61199;47.526;8.538;2023-05-03T09:39:41;97024.13;;;14.71;64.38
73024;BME280;61199;47.526;8.538;2023-05-03T09:42:11;97028.16;;;14.75;64.27
73024;BME280;61199;47.526;8.538;2023-05-03T09:44:46;97025.25;;;14.95;63.20
73024;BME280;61199;47.526;8.538;2023-05-03T09:47:17;97023.03;;;15.00;62.84
73024;BME280;61199;47.526;8.538;2023-05-03T09:49:50;97028.78;;;15.13;62.86
73024;BME280;61199;47.526;8.538;2023-05-03T09:52:18;97018.72;;;15.26;62.68
73024;BME280;61199;47.526;8.538;2023-05-03T09:54:45;97024.97;;;15.52;62.16
73024;BME280;61199;47.526;8.538;2023-05-03T09:57:11;97010.41;;;15.66;61.85
73024;BME280;61199;47.526;8.538;2023-05-03T09:59:39;97016.13;;;15.61;62.52
73024;BME280;61199;47.526;8.538;2023-05-03T10:02:07;97018.84;;;15.87;62.10
73024;BME280;61199;47.526;8.538;2023-05-03T10:04:38;97011.66;;;15.97;62.11
73024;BME280;61199;47.526;8.538;2023-05-03T10:07:10;97006.38;;;15.97;61.69
73024;BME280;61199;47.526;8.538;2023-05-03T10:09:39;97007.22;;;15.97;61.30
73024;BME280;61199;47.526;8.538;2023-05-03T10:12:09;97014.28;;;15.97;60.55
73024;BME280;61199;47.526;8.538;2023-05-03T10:14:41;97018.63;;;15.80;60.63
73024;BME280;61199;47.526;8.538;2023-05-03T10:17:21;97007.44;;;15.86;59.70
73024;BME280;61199;47.526;8.538;2023-05-03T10:20:27;96999.50;;;15.86;59.63
73024;BME280;61199;47.526;8.538;2023-05-03T10:25:31;96997.78;;;15.95;59.85
73024;BME280;61199;47.526;8.538;2023-05-03T10:28:04;97005.53;;;15.96;60.01
73024;BME280;61199;47.526;8.538;2023-05-03T10:30:36;97003.47;;;16.25;60.15
73024;BME280;61199;47.526;8.538;2023-05-03T10:35:40;96999.94;;;16.68;58.80
73024;BME280;61199;47.526;8.538;2023-05-03T10:38:20;97001.69;;;16.59;59.25
73024;BME280;61199;47.526;8.538;2023-05-03T10:40:47;96997.81;;;16.71;58.32
73024;BME280;61199;47.526;8.538;2023-05-03T10:43:40;96993.47;;;16.70;57.01
73024;BME280;61199;47.526;8.538;2023-05-03T10:46:09;96989.03;;;16.71;57.30
73024;BME280;61199;47.526;8.538;2023-05-03T10:49:14;96989.03;;;16.71;56.73
73024;BME280;61199;47.526;8.538;2023-05-03T10:51:41;96987.69;;;16.67;57.24
73024;BME280;61199;47.526;8.538;2023-05-03T10:54:08;96982.16;;;16.86;56.61
73024;BME280;61199;47.526;8.538;2023-05-03T10:56:47;96993.88;;;16.83;56.90
73024;BME280;61199;47.526;8.538;2023-05-03T10:59:13;96984.72;;;17.11;56.56
73024;BME280;61199;47.526;8.538;2023-05-03T11:01:41;96984.41;;;17.14;56.49
73024;BME280;61199;47.526;8.538;2023-05-03T11:04:15;96987.03;;;17.14;56.88
73024;BME280;61199;47.526;8.538;2023-05-03T11:06:45;96992.69;;;17.19;55.33
73024;BME280;61199;47.526;8.538;2023-05-03T11:09:14;96980.88;;;17.39;54.21
73024;BME280;61199;47.526;8.538;2023-05-03T11:11:41;96976.09;;;17.59;52.83
73024;BME280;61199;47.526;8.538;2023-05-03T11:14:09;96987.50;;;17.59;52.54
73024;BME280;61199;47.526;8.538;2023-05-03T11:16:36;96973.28;;;17.68;52.98
73024;BME280;61199;47.526;8.538;2023-05-03T11:19:13;96981.25;;;17.84;52.17
73024;BME280;61199;47.526;8.538;2023-05-03T11:21:41;96980.25;;;18.09;53.09
73024;BME280;61199;47.526;8.538;2023-05-03T11:24:07;96975.63;;;18.35;53.26
73024;BME280;61199;47.526;8.538;2023-05-03T11:26:35;96971.25;;;18.42;52.67
73024;BME280;61199;47.526;8.538;2023-05-03T11:29:01;96971.28;;;18.26;52.78
73024;BME280;61199;47.526;8.538;2023-05-03T11:31:28;96970.09;;;18.52;52.51
73024;BME280;61199;47.526;8.538;2023-05-03T11:33:54;96977.41;;;18.50;52.98
73024;BME280;61199;47.526;8.538;2023-05-03T11:36:21;96970.53;;;18.72;50.96
73024;BME280;61199;47.526;8.538;2023-05-03T11:38:47;96969.00;;;18.85;49.36
73024;BME280;61199;47.526;8.538;2023-05-03T11:41:15;96960.72;;;18.80;48.98
73024;BME280;61199;47.526;8.538;2023-05-03T11:43:45;96963.81;;;18.92;48.77
73024;BME280;61199;47.526;8.538;2023-05-03T11:46:14;96953.34;;;18.98;48.34
73024;BME280;61199;47.526;8.538;2023-05-03T11:48:43;96957.72;;;19.14;48.79
73024;BME280;61199;47.526;8.538;2023-05-03T11:51:10;96948.16;;;19.05;47.45
73024;BME280;61199;47.526;8.538;2023-05-03T11:53:38;96950.84;;;18.97;46.84
73024;BME280;61199;47.526;8.538;2023-05-03T11:56:07;96952.13;;;19.09;47.81
73024;BME280;61199;47.526;8.538;2023-05-03T11:58:34;96938.53;;;19.04;47.64
73024;BME280;61199;47.526;8.538;2023-05-03T12:01:01;96943.81;;;19.12;47.71
73024;BME280;61199;47.526;8.538;2023-05-03T12:03:29;96931.53;;;19.11;48.06
73024;BME280;61199;47.526;8.538;2023-05-03T12:05:59;96945.94;;;19.16;48.12
73024;BME280;61199;47.526;8.538;2023-05-03T12:08:29;96939.78;;;19.24;47.91
73024;BME280;61199;47.526;8.538;2023-05-03T12:10:59;96933.59;;;19.31;48.19
73024;BME280;61199;47.526;8.538;2023-05-03T12:13:33;96937.25;;;19.53;48.59
73024;BME280;61199;47.526;8.538;2023-05-03T12:16:06;96937.44;;;19.74;47.44
73024;BME280;61199;47.526;8.538;2023-05-03T12:21:23;96929.91;;;20.00;46.54
73024;BME280;61199;47.526;8.538;2023-05-03T12:23:56;96930.22;;;20.05;45.89
73024;BME280;61199;47.526;8.538;2023-05-03T12:26:23;96926.56;;;20.06;46.68
73024;BME280;61199;47.526;8.538;2023-05-03T12:28:51;96936.88;;;20.01;46.44
73024;BME280;61199;47.526;8.538;2023-05-03T12:31:21;96941.09;;;20.18;46.31
73024;BME280;61199;47.526;8.538;2023-05-03T12:33:48;96940.97;;;20.26;45.20
73024;BME280;61199;47.526;8.538;2023-05-03T12:36:36;96923.66;;;20.30;45.40
73024;BME280;61199;47.526;8.538;2023-05-03T12:39:04;96937.13;;;20.14;45.25
73024;BME280;61199;47.526;8.538;2023-05-03T12:41:35;96928.41;;;20.05;45.41
73024;BME280;61199;47.526;8.538;2023-05-03T12:44:04;96918.47;;;19.77;45.34
73024;BME280;61199;47.526;8.538;2023-05-03T12:46:36;96925.97;;;19.73;46.44
73024;BME280;61199;47.526;8.538;2023-05-03T12:49:03;96926.16;;;19.72;45.89
73024;BME280;61199;47.526;8.538;2023-05-03T12:51:33;96928.47;;;19.75;45.98
73024;BME280;61199;47.526;8.538;2023-05-03T12:54:00;96921.44;;;19.82;45.73
73024;BME280;61199;47.526;8.538;2023-05-03T12:56:28;96916.41;;;20.01;45.54
73024;BME280;61199;47.526;8.538;2023-05-03T12:58:58;96917.38;;;20.08;44.41
73024;BME280;61199;47.526;8.538;2023-05-03T13:01:44;96918.56;;;20.06;45.16
73024;BME280;61199;47.526;8.538;2023-05-03T13:04:31;96910.16;;;19.94;44.79
73024;BME280;61199;47.526;8.538;2023-05-03T13:07:18;96902.47;;;20.22;44.88
73024;BME280;61199;47.526;8.538;2023-05-03T13:09:54;96901.91;;;20.41;45.87
73024;BME280;61199;47.526;8.538;2023-05-03T13:12:24;96896.97;;;20.38;44.86
73024;BME280;61199;47.526;8.538;2023-05-03T13:14:52;96901.44;;;20.37;44.09
73024;BME280;61199;47.526;8.538;2023-05-03T13:17:19;96895.66;;;20.34;44.10